SCSE

La Florida Airport

Airport
ICAO code
SCSE
IATA Code
LSC
Summary
ICAO Region
CARSAM
ICAO Territory
Location

La Antena, Coquimbo

Serving
La Serena
Elevation
481 ft
Coordinates
29° 54' 58" S , 71° 11' 58" W
KCC
BWk
Metar
Observation
SCSE 131400Z 15003KT 110V190 CAVOK 12/07 Q1020
Station
La Serena
Date/Time
2022-08-13 14:00:00
Wind direction
150°
Wind speed
03 kts
Lowest cloud amount
clouds and visibility OK
Temperature
12°C
Dew point
7°C
Humidity
71%
QNH
1020 hPa
Weather condition
n/a

Airport in La Serena, Chile.

Climatology

Cool desert climate (Köppen climate classification BWk)

Runways

Designator Length Width Surface Rops
11/29 1938 45 ASP Yes/Yes

Airport map

Aerial View

SKYbrary Partners:

Safety knowledge contributed by: